Time;durP1;ratioP1;P1;durP2;ratioP2;P2;SDS_P1;SDS_P2;PMS_P1;PMS_P2;Temp;Humidity;BMP_temperature;BMP_pressure;BME280_temperature;BME280_humidity;BME280_pressure;Samples;Min_cycle;Max_cycle;Signal;HPM_P1;HPM_P2
2023/04/10 00:00:23;;;;;;;17.17;8.65;;;;;;;7.29;89.24;102098.19;4930089;29;20020;-96
2023/04/10 00:02:51;;;;;;;16.25;8.68;;;;;;;7.31;89.71;102096.47;4925649;29;20027;-95
2023/04/10 00:05:23;;;;;;;15.80;8.40;;;;;;;7.36;88.85;102098.28;4927451;29;20115;-96
2023/04/10 00:07:49;;;;;;;15.75;8.73;;;;;;;7.39;90.16;102089.69;4929254;29;20028;-96
2023/04/10 00:10:14;;;;;;;16.17;8.77;;;;;;;7.38;89.30;102083.66;4934431;29;20031;-96
2023/04/10 00:12:43;;;;;;;16.40;8.68;;;;;;;7.43;89.02;102083.72;4929131;29;20115;-96
2023/04/10 00:15:11;;;;;;;15.38;8.93;;;;;;;7.43;89.62;102063.09;4934266;29;20034;-96
2023/04/10 00:17:40;;;;;;;17.13;8.50;;;;;;;7.50;87.68;102068.31;4944291;29;20024;-96
2023/04/10 00:20:11;;;;;;;15.43;8.13;;;;;;;7.50;87.20;102059.69;4925422;29;20028;-96
2023/04/10 00:22:42;;;;;;;17.02;8.73;;;;;;;7.53;89.75;102060.56;4920961;29;20047;-96
2023/04/10 00:25:15;;;;;;;14.38;8.18;;;;;;;7.51;89.12;102054.53;4927256;29;20038;-96
2023/04/10 00:27:41;;;;;;;15.68;8.63;;;;;;;7.56;88.25;102048.56;4927215;29;20031;-96
2023/04/10 00:30:09;;;;;;;17.52;8.93;;;;;;;7.64;87.03;102054.66;4925301;29;20080;-95
2023/04/10 00:32:38;;;;;;;17.00;8.65;;;;;;;7.65;87.12;102049.47;4929262;29;20115;-96
2023/04/10 00:35:04;;;;;;;17.50;8.90;;;;;;;7.62;86.55;102041.72;4925596;29;20110;-95
2023/04/10 00:37:32;;;;;;;15.55;8.32;;;;;;;7.61;86.25;102034.84;4932635;29;20106;-95
2023/04/10 00:39:57;;;;;;;14.93;8.43;;;;;;;7.65;86.51;102043.44;4925918;29;20117;-96
2023/04/10 00:42:29;;;;;;;16.30;8.65;;;;;;;7.66;86.37;102033.16;4929757;29;20044;-96
2023/04/10 00:45:01;;;;;;;16.15;8.30;;;;;;;7.75;88.15;102045.25;4931601;29;20038;-96
2023/04/10 00:47:30;;;;;;;15.15;8.25;;;;;;;7.60;85.79;102022.78;4928106;29;20444;-96
2023/04/10 00:49:56;;;;;;;16.02;8.65;;;;;;;7.56;87.09;102023.63;4926499;29;20057;-96
2023/04/10 00:52:29;;;;;;;15.27;8.68;;;;;;;7.67;88.32;102039.19;4946279;28;20046;-96
2023/04/10 00:54:54;;;;;;;15.45;8.60;;;;;;;7.59;86.84;102033.09;4943222;29;20111;-96
2023/04/10 00:57:23;;;;;;;15.48;8.68;;;;;;;7.49;86.44;102022.72;4930348;29;20114;-95
2023/04/10 00:59:55;;;;;;;15.95;8.95;;;;;;;7.64;87.17;102047.78;4931505;29;20039;-96
2023/04/10 01:02:23;;;;;;;18.08;8.57;;;;;;;7.43;86.69;102020.09;4930024;29;20024;-96
2023/04/10 01:04:49;;;;;;;16.45;8.77;;;;;;;7.49;89.78;102027.88;4931582;29;20444;-96
2023/04/10 01:07:35;;;;;;;14.77;8.23;;;;;;;7.38;87.29;102011.44;4934714;29;20481;-96
2023/04/10 01:10:28;;;;;;;18.70;8.45;;;;;;;7.38;87.11;102016.59;4929821;29;20082;-96
2023/04/10 01:13:15;;;;;;;14.70;8.10;;;;;;;7.34;87.07;102020.00;4928366;29;20046;-96
2023/04/10 01:15:59;;;;;;;16.65;8.77;;;;;;;7.38;87.12;102034.66;4927736;29;20035;-96
2023/04/10 01:18:45;;;;;;;14.35;7.97;;;;;;;7.40;88.87;102032.94;4945450;29;20039;-96
2023/04/10 01:21:13;;;;;;;15.77;8.45;;;;;;;7.25;87.97;102017.34;4930624;29;20031;-95
2023/04/10 01:24:22;;;;;;;15.52;8.80;;;;;;;7.40;90.38;102034.66;4941925;29;20055;-96
2023/04/10 01:27:02;;;;;;;17.08;8.32;;;;;;;7.36;89.44;102028.63;4936323;29;20035;-96
2023/04/10 01:29:31;;;;;;;14.45;8.38;;;;;;;7.21;89.67;102013.03;4948778;29;20027;-96
2023/04/10 01:32:10;;;;;;;15.68;8.85;;;;;;;7.24;91.95;102022.47;4932065;29;20090;-95
2023/04/10 01:34:49;;;;;;;15.48;8.25;;;;;;;7.26;92.91;102031.09;4931607;29;20034;-95
2023/04/10 01:37:22;;;;;;;16.60;8.50;;;;;;;7.07;93.64;102005.16;4930172;29;20066;-96
2023/04/10 01:40:07;;;;;;;15.65;8.90;;;;;;;7.13;90.25;102014.66;4935860;29;20063;-96
2023/04/10 01:42:36;;;;;;;15.95;8.35;;;;;;;7.07;91.91;102012.03;4933029;29;20031;-95
2023/04/10 01:45:03;;;;;;;16.38;8.90;;;;;;;7.00;92.74;101998.22;4948491;29;20024;-96
2023/04/10 01:47:35;;;;;;;15.98;8.15;;;;;;;7.07;95.01;102007.75;4928705;29;20035;-95
2023/04/10 01:50:02;;;;;;;16.50;9.20;;;;;;;6.97;93.41;101990.44;4931372;29;20066;-96
2023/04/10 01:52:29;;;;;;;17.35;8.65;;;;;;;7.07;94.67;102002.59;4930363;29;20044;-96
2023/04/10 01:54:56;;;;;;;17.17;9.15;;;;;;;7.04;92.95;101997.38;4927441;29;20039;-96
2023/04/10 01:57:31;;;;;;;16.75;9.25;;;;;;;7.15;92.64;102007.81;4929991;29;20020;-95
2023/04/10 02:00:00;;;;;;;16.83;8.77;;;;;;;7.00;93.67;101980.19;4927276;29;20379;-96
2023/04/10 02:02:30;;;;;;;18.15;9.38;;;;;;;7.04;95.10;101989.66;4931752;29;20039;-96
2023/04/10 02:04:55;;;;;;;18.75;9.25;;;;;;;6.98;92.08;101981.88;4927969;29;20030;-96
2023/04/10 02:07:35;;;;;;;18.27;9.23;;;;;;;7.12;92.72;101995.75;4926742;29;20960;-96
2023/04/10 02:10:27;;;;;;;16.40;9.15;;;;;;;6.95;93.92;101957.78;4929620;29;20429;-96
2023/04/10 02:13:00;;;;;;;18.35;8.82;;;;;;;6.90;94.32;101952.56;4932864;29;20063;-96
2023/04/10 02:15:31;;;;;;;15.63;8.77;;;;;;;6.94;93.49;101958.63;4934553;29;20031;-95
2023/04/10 02:18:07;;;;;;;16.15;9.10;;;;;;;6.97;90.76;101966.38;4927876;29;20125;-96
2023/04/10 02:20:32;;;;;;;18.90;9.63;;;;;;;7.03;90.96;101974.16;4924297;29;20091;-96
2023/04/10 02:23:02;;;;;;;17.17;9.23;;;;;;;6.91;91.91;101950.84;4925546;29;20043;-95
2023/04/10 02:25:32;;;;;;;17.90;9.07;;;;;;;7.08;92.37;101986.28;4928697;29;20036;-96
2023/04/10 02:27:57;;;;;;;18.90;9.13;;;;;;;7.04;92.10;101971.59;4932295;29;20047;-95
2023/04/10 02:30:23;;;;;;;17.00;8.65;;;;;;;6.98;92.55;101963.81;4928211;29;20028;-96
2023/04/10 02:32:49;;;;;;;16.92;9.30;;;;;;;7.02;90.42;101968.16;4933797;29;21008;-96
2023/04/10 02:35:14;;;;;;;18.38;9.30;;;;;;;7.02;92.78;101970.75;4939618;29;20078;-96
2023/04/10 02:37:43;;;;;;;17.48;9.48;;;;;;;6.89;91.61;101943.09;4921877;29;20119;-96
2023/04/10 02:40:15;;;;;;;18.33;9.65;;;;;;;6.92;91.64;101948.31;4930953;29;20051;-96
2023/04/10 02:42:43;;;;;;;18.80;9.38;;;;;;;7.08;93.07;101975.97;4927935;29;20458;-96
2023/04/10 02:45:10;;;;;;;18.83;9.45;;;;;;;6.95;92.53;101953.50;4931226;29;20036;-96
2023/04/10 02:47:42;;;;;;;17.52;9.45;;;;;;;6.87;91.52;101946.53;4947104;29;20066;-95
2023/04/10 02:50:08;;;;;;;17.02;9.63;;;;;;;6.83;91.65;101937.03;4925162;29;20083;-96
2023/04/10 02:52:34;;;;;;;19.48;10.35;;;;;;;6.84;93.80;101947.38;4930620;29;20044;-96
2023/04/10 02:55:02;;;;;;;18.45;9.60;;;;;;;6.90;93.30;101956.84;4930417;29;20031;-95
2023/04/10 02:57:27;;;;;;;18.58;10.23;;;;;;;6.77;92.55;101935.28;4926396;29;20051;-95
2023/04/10 02:59:59;;;;;;;18.25;9.50;;;;;;;6.78;94.35;101939.59;4929260;29;20172;-95
2023/04/10 03:02:27;;;;;;;18.02;9.52;;;;;;;6.72;94.42;101929.22;4926775;29;20027;-96
2023/04/10 03:04:53;;;;;;;20.17;9.80;;;;;;;6.70;93.38;101936.94;4930252;29;20086;-96
2023/04/10 03:07:24;;;;;;;17.00;9.15;;;;;;;6.84;93.21;101970.56;4922673;29;20024;-96
2023/04/10 03:09:52;;;;;;;17.70;9.57;;;;;;;6.70;94.75;101954.97;4927184;29;20040;-96
2023/04/10 03:12:18;;;;;;;19.08;10.10;;;;;;;6.79;93.79;101972.22;4928317;29;20024;-96
2023/04/10 03:14:46;;;;;;;19.25;9.88;;;;;;;6.59;92.32;101945.41;4928226;29;20028;-96
2023/04/10 03:17:12;;;;;;;19.88;9.57;;;;;;;6.73;92.98;101972.19;4928757;29;20028;-96
2023/04/10 03:19:40;;;;;;;19.98;10.10;;;;;;;6.77;94.20;101980.78;4932226;29;20087;-96
2023/04/10 03:22:06;;;;;;;16.92;9.23;;;;;;;6.67;92.60;101972.13;4924654;29;20114;-96
2023/04/10 03:24:34;;;;;;;17.25;9.48;;;;;;;6.55;91.75;101956.53;4927467;29;20116;-94
2023/04/10 03:27:02;;;;;;;19.40;10.05;;;;;;;6.70;92.67;101982.44;4926688;29;20154;-95
2023/04/10 03:29:27;;;;;;;18.77;9.57;;;;;;;6.47;92.31;101943.56;4929990;29;20020;-96
2023/04/10 03:31:52;;;;;;;18.33;9.73;;;;;;;6.49;92.31;101948.72;4930422;29;20035;-96
2023/04/10 03:34:18;;;;;;;19.55;9.32;;;;;;;6.53;93.32;101956.50;4929339;29;20036;-96
2023/04/10 03:36:43;;;;;;;17.75;9.85;;;;;;;6.44;93.83;101946.09;4925772;29;20015;-96
2023/04/10 03:39:15;;;;;;;18.40;9.02;;;;;;;6.61;93.79;101966.91;4927633;29;20054;-96
2023/04/10 03:41:43;;;;;;;17.17;9.05;;;;;;;6.44;94.54;101942.66;4925408;29;20028;-95
2023/04/10 03:44:11;;;;;;;17.85;9.48;;;;;;;6.45;92.04;101939.25;4930947;29;20031;-96
2023/04/10 03:46:37;;;;;;;18.80;9.40;;;;;;;6.50;93.25;101945.28;4924996;29;20539;-96
2023/04/10 03:49:02;;;;;;;17.02;9.50;;;;;;;6.40;94.41;101938.34;4927237;29;20051;-95
2023/04/10 03:51:27;;;;;;;17.52;9.40;;;;;;;6.34;93.01;101926.25;4928262;29;20043;-96
2023/04/10 03:53:55;;;;;;;16.90;9.23;;;;;;;6.30;92.80;101920.19;4923963;29;20028;-96
2023/04/10 03:56:24;;;;;;;16.77;9.00;;;;;;;6.44;94.18;101948.69;4927834;29;20090;-96
2023/04/10 03:58:49;;;;;;;17.48;9.35;;;;;;;6.32;94.26;101928.81;4926139;29;20024;-95
2023/04/10 04:01:15;;;;;;;17.65;9.15;;;;;;;6.25;93.08;101932.16;4922537;29;20066;-96
2023/04/10 04:03:40;;;;;;;17.55;8.88;;;;;;;6.17;93.34;101917.47;4919266;29;20024;-96
2023/04/10 04:06:06;;;;;;;18.67;9.50;;;;;;;6.11;94.96;101905.41;4925431;29;20031;-96
2023/04/10 04:08:40;;;;;;;18.35;9.43;;;;;;;6.06;96.02;101903.63;4918424;29;20094;-96
2023/04/10 04:11:11;;;;;;;16.98;8.63;;;;;;;6.04;93.63;101908.75;4922836;29;20055;-95
2023/04/10 04:13:36;;;;;;;17.23;9.52;;;;;;;6.07;94.18;101911.38;4927204;29;20023;-95
2023/04/10 04:16:02;;;;;;;18.85;9.27;;;;;;;6.03;96.49;101911.28;4925865;29;20087;-96
2023/04/10 04:18:27;;;;;;;16.88;9.15;;;;;;;6.05;97.18;101925.91;4926414;29;20122;-95
2023/04/10 04:20:53;;;;;;;16.25;8.88;;;;;;;5.90;94.07;101910.28;4943696;29;20027;-95
2023/04/10 04:23:21;;;;;;;18.55;8.77;;;;;;;6.08;96.48;101931.09;4926300;29;20023;-95
2023/04/10 04:26:02;;;;;;;16.08;9.07;;;;;;;5.99;96.54;101914.69;4925855;29;20032;-96
2023/04/10 04:28:27;;;;;;;15.63;8.75;;;;;;;5.86;96.43;101899.06;4932240;29;20028;-95
2023/04/10 04:30:56;;;;;;;18.42;8.70;;;;;;;5.81;95.67;101887.84;4929204;29;20393;-96
2023/04/10 04:33:21;;;;;;;18.67;8.90;;;;;;;5.98;97.07;101929.25;4922348;29;20313;-96
2023/04/10 04:35:48;;;;;;;17.05;8.50;;;;;;;5.76;95.46;101886.06;4924260;29;20076;-95
2023/04/10 04:38:20;;;;;;;16.73;9.10;;;;;;;5.75;95.66;101887.75;4924036;29;20023;-96
2023/04/10 04:40:46;;;;;;;17.00;8.55;;;;;;;5.78;97.03;101897.25;4920723;29;20032;-96
2023/04/10 04:43:11;;;;;;;15.45;8.20;;;;;;;5.77;97.90;101896.38;4923847;29;20038;-96
2023/04/10 04:45:37;;;;;;;17.08;9.13;;;;;;;5.76;98.46;101897.22;4921604;29;20350;-96
2023/04/10 04:48:04;;;;;;;15.75;8.73;;;;;;;5.84;98.50;101910.19;4928689;29;20500;-96
2023/04/10 04:50:39;;;;;;;16.98;8.57;;;;;;;5.80;96.35;101885.28;4930690;29;20040;-96
2023/04/10 04:53:05;;;;;;;17.27;9.15;;;;;;;5.82;95.77;101888.69;4931495;29;20091;-95
2023/04/10 04:55:36;;;;;;;16.85;8.30;;;;;;;5.94;95.58;101899.16;4929969;29;20024;-96
2023/04/10 04:58:02;;;;;;;18.67;9.38;;;;;;;5.86;95.40;101895.63;4928272;29;20024;-96
2023/04/10 05:00:30;;;;;;;16.88;9.20;;;;;;;5.80;95.67;101869.84;4931116;29;20062;-95
2023/04/10 05:02:56;;;;;;;16.02;8.70;;;;;;;5.84;94.56;101880.16;4929258;29;20129;-95
2023/04/10 05:05:22;;;;;;;18.17;9.15;;;;;;;6.01;95.94;101895.81;4929894;29;20116;-95
2023/04/10 05:07:47;;;;;;;15.98;8.60;;;;;;;6.05;95.32;101909.63;4927278;29;20055;-96
2023/04/10 05:13:11;;;;;;;18.08;8.45;;;;;;;5.91;95.47;101868.28;4939426;29;20508;-95
2023/04/10 05:15:45;;;;;;;17.35;9.00;;;;;;;6.11;93.87;101891.66;4945809;29;20547;-96
2023/04/10 05:18:42;;;;;;;;;;;;;;;6.16;93.86;101890.00;4950984;29;20526;-96
2023/04/10 05:25:15;;;;;;;17.27;8.55;;;;;;;6.29;93.48;101884.13;4972643;29;20047;-96
2023/04/10 05:30:35;;;;;;;16.25;8.50;;;;;;;6.42;92.66;101877.38;4981130;23;20023;-74
2023/04/10 05:33:01;;;;;;;17.40;8.60;;;;;;;6.47;94.64;101875.75;5041881;23;20051;-74
2023/04/10 05:35:26;;;;;;;16.77;8.77;;;;;;;6.55;95.54;101869.78;4987657;23;20142;-88
2023/04/10 05:37:54;;;;;;;17.55;9.13;;;;;;;6.50;95.13;101847.44;4982217;23;20083;-95
2023/04/10 05:40:22;;;;;;;15.55;8.45;;;;;;;6.70;94.10;101863.91;4935297;29;20543;-95
2023/04/10 05:42:51;;;;;;;16.58;8.52;;;;;;;6.79;91.10;101865.72;4929609;29;20028;-93
2023/04/10 05:45:17;;;;;;;17.27;9.02;;;;;;;6.85;90.89;101851.16;4932432;29;20051;-95
2023/04/10 05:47:43;;;;;;;17.23;8.32;;;;;;;6.95;90.90;101850.41;4937197;29;20239;-96
2023/04/10 05:50:11;;;;;;;18.60;8.63;;;;;;;7.15;90.55;101858.28;4941870;29;20024;-94
2023/04/10 05:52:36;;;;;;;15.77;8.30;;;;;;;7.33;89.88;101875.56;4928857;29;20031;-95
2023/04/10 05:55:02;;;;;;;17.50;9.20;;;;;;;7.32;90.30;101854.06;4943216;29;20374;-95
2023/04/10 05:57:31;;;;;;;16.90;8.88;;;;;;;7.49;87.67;101867.06;4938877;29;20039;-95
2023/04/10 05:59:56;;;;;;;16.98;9.30;;;;;;;7.55;89.30;101854.19;4927015;29;20031;-95
2023/04/10 06:02:21;;;;;;;16.15;8.77;;;;;;;7.69;87.47;101864.59;4942106;29;20038;-96
2023/04/10 06:04:47;;;;;;;18.80;9.00;;;;;;;7.82;89.99;101861.19;4937243;29;20031;-96
2023/04/10 06:07:15;;;;;;;15.23;8.35;;;;;;;7.87;86.45;101851.75;4926257;29;20068;-96
2023/04/10 06:09:41;;;;;;;15.18;8.82;;;;;;;7.97;84.94;101855.22;4927088;29;20180;-96
2023/04/10 06:12:06;;;;;;;14.55;8.43;;;;;;;8.14;85.44;101874.19;4927450;29;20045;-96
2023/04/10 06:14:32;;;;;;;16.80;8.60;;;;;;;8.24;84.74;101866.50;4926670;29;20533;-96
2023/04/10 06:17:00;;;;;;;17.70;8.85;;;;;;;8.28;87.01;101844.09;4926942;29;20075;-95
2023/04/10 06:19:26;;;;;;;17.17;8.98;;;;;;;8.44;83.88;101845.03;4926382;28;20115;-96
2023/04/10 06:21:54;;;;;;;14.82;8.00;;;;;;;8.55;84.80;101841.59;4926893;29;20028;-94
2023/04/10 06:24:19;;;;;;;14.90;8.57;;;;;;;8.69;83.31;101842.47;4926841;29;20062;-95
2023/04/10 06:26:47;;;;;;;16.77;8.38;;;;;;;8.97;80.89;101863.13;4929595;29;20366;-96
2023/04/10 06:29:16;;;;;;;16.30;9.30;;;;;;;8.98;82.45;101847.63;4926901;29;20374;-96
2023/04/10 06:31:43;;;;;;;16.90;8.70;;;;;;;9.02;83.44;101825.19;4932526;28;20027;-95
2023/04/10 06:34:11;;;;;;;15.77;9.20;;;;;;;9.23;82.17;101839.81;4926497;29;20023;-95
2023/04/10 06:36:37;;;;;;;16.23;9.10;;;;;;;9.46;81.50;101850.97;4925032;29;20443;-96
2023/04/10 06:39:02;;;;;;;15.82;9.15;;;;;;;9.48;78.53;101831.13;4927227;29;20489;-95
2023/04/10 06:41:39;;;;;;;17.77;9.40;;;;;;;9.57;79.32;101823.31;4930521;29;20633;-96
2023/04/10 06:44:07;;;;;;;16.83;9.20;;;;;;;9.64;79.64;101816.38;4921994;29;20395;-96
2023/04/10 06:46:33;;;;;;;15.85;9.18;;;;;;;9.74;81.04;101825.84;4937235;28;20040;-96
2023/04/10 06:49:05;;;;;;;19.42;9.20;;;;;;;9.75;78.93;101814.63;4923782;29;20043;-96
2023/04/10 06:51:32;;;;;;;17.48;8.82;;;;;;;9.75;77.22;101797.38;4925551;29;20083;-96
2023/04/10 06:53:58;;;;;;;15.77;9.27;;;;;;;9.78;78.14;101792.16;4922520;29;20489;-96
2023/04/10 06:56:23;;;;;;;15.70;9.00;;;;;;;10.00;79.08;101807.59;4914760;29;20046;-96
2023/04/10 06:58:49;;;;;;;15.73;9.02;;;;;;;10.02;76.92;101791.19;4923626;29;20069;-96
2023/04/10 07:01:16;;;;;;;16.80;9.30;;;;;;;10.24;79.54;101816.09;4921642;29;20083;-96
2023/04/10 07:03:41;;;;;;;16.35;9.80;;;;;;;10.23;80.08;101790.22;4922171;29;20024;-95
2023/04/10 07:06:09;;;;;;;17.23;9.52;;;;;;;10.25;76.84;101776.34;4921723;29;20506;-96
2023/04/10 07:08:35;;;;;;;15.90;8.68;;;;;;;10.31;76.34;101778.03;4921919;29;20095;-95
2023/04/10 07:11:06;;;;;;;16.33;9.25;;;;;;;10.34;77.18;101761.59;4922301;29;20477;-95
2023/04/10 07:13:31;;;;;;;17.92;9.10;;;;;;;10.47;75.93;101769.28;4921252;29;20065;-95
2023/04/10 07:16:02;;;;;;;17.38;9.38;;;;;;;10.56;76.17;101768.34;4920902;29;20086;-95
2023/04/10 07:18:30;;;;;;;19.23;9.20;;;;;;;10.59;78.20;101755.34;4923040;29;20107;-94
2023/04/10 07:20:55;;;;;;;14.60;8.50;;;;;;;10.66;76.87;101755.25;4938246;28;21617;-94
2023/04/10 07:23:30;;;;;;;15.48;9.02;;;;;;;10.90;76.16;101774.94;4921018;29;20689;-96
2023/04/10 07:26:01;;;;;;;15.88;9.32;;;;;;;10.88;73.56;101740.34;4933740;28;20377;-94
2023/04/10 07:28:32;;;;;;;16.77;9.35;;;;;;;11.02;74.25;101745.41;4921921;29;20036;-96
2023/04/10 07:31:00;;;;;;;14.60;8.73;;;;;;;11.20;71.68;101746.91;4925501;29;20024;-93
2023/04/10 07:33:31;;;;;;;14.13;8.18;;;;;;;11.26;69.24;101729.53;4923478;29;20038;-94
2023/04/10 07:35:57;;;;;;;16.35;9.30;;;;;;;11.44;70.23;101731.91;4922613;29;20517;-93
2023/04/10 07:38:24;;;;;;;15.40;9.35;;;;;;;11.77;70.22;101738.41;4920749;29;20520;-93
2023/04/10 07:40:55;;;;;;;13.85;8.68;;;;;;;11.91;67.56;101734.75;4924909;29;20039;-95
2023/04/10 07:43:43;;;;;;;13.40;8.65;;;;;;;11.89;68.44;101719.19;4923013;29;20039;-94
2023/04/10 07:46:18;;;;;;;15.35;9.05;;;;;;;12.18;69.70;101731.72;4920128;29;20102;-93
2023/04/10 07:48:50;;;;;;;15.55;8.70;;;;;;;12.35;66.01;101723.66;4923535;29;20067;-96
2023/04/10 07:51:27;;;;;;;17.55;9.02;;;;;;;12.52;67.46;101695.63;4937818;28;20040;-93
2023/04/10 07:53:53;;;;;;;14.98;8.82;;;;;;;12.95;65.00;101687.88;4922262;29;20047;-94
2023/04/10 07:56:22;;;;;;;14.25;8.90;;;;;;;13.34;62.88;101699.22;4923875;29;20027;-93
2023/04/10 07:58:53;;;;;;;17.52;8.70;;;;;;;13.72;61.39;101706.19;4922536;29;20023;-95
2023/04/10 08:01:26;;;;;;;15.48;8.50;;;;;;;13.94;60.02;101696.13;4922513;29;20031;-95
2023/04/10 08:04:01;;;;;;;15.40;8.50;;;;;;;14.23;58.71;101699.75;4923436;29;20027;-94
2023/04/10 08:06:27;;;;;;;12.70;8.20;;;;;;;14.71;60.80;101690.69;4919869;29;20962;-96
2023/04/10 08:09:00;;;;;;;13.32;8.10;;;;;;;15.25;60.40;101683.06;4924467;28;20106;-96
2023/04/10 08:11:41;;;;;;;14.43;8.23;;;;;;;16.00;55.64;101684.22;4923929;29;20090;-95
2023/04/10 08:14:12;;;;;;;14.40;9.00;;;;;;;16.55;55.15;101672.75;4933063;28;20043;-95
2023/04/10 08:16:43;;;;;;;12.38;8.35;;;;;;;16.92;50.38;101664.47;4926210;29;20111;-95
2023/04/10 08:19:11;;;;;;;12.82;8.05;;;;;;;17.17;51.38;101667.88;4925314;29;20051;-95
2023/04/10 08:21:39;;;;;;;12.18;8.00;;;;;;;16.97;49.80;101654.66;4925902;29;20032;-96
2023/04/10 08:24:04;;;;;;;12.52;8.07;;;;;;;16.74;51.29;101659.88;4925710;29;20555;-95
2023/04/10 08:26:33;;;;;;;12.27;8.10;;;;;;;16.35;50.41;101657.75;4919275;29;20206;-94
2023/04/10 08:29:02;;;;;;;12.75;8.73;;;;;;;15.96;49.59;101664.31;4924181;29;20107;-96
2023/04/10 08:31:33;;;;;;;13.07;8.02;;;;;;;15.72;52.29;101672.03;4914405;29;20122;-95
2023/04/10 08:33:58;;;;;;;12.57;8.07;;;;;;;15.64;54.76;101668.81;4927199;29;20059;-94
2023/04/10 08:36:24;;;;;;;13.93;9.18;;;;;;;15.52;53.27;101656.09;4925991;29;20123;-94
2023/04/10 08:38:49;;;;;;;14.48;8.18;;;;;;;15.59;55.49;101675.94;4926195;29;20047;-95
2023/04/10 08:41:17;;;;;;;13.45;8.32;;;;;;;15.65;55.32;101673.13;4924242;29;20408;-96
2023/04/10 08:43:44;;;;;;;12.35;8.18;;;;;;;15.72;52.16;101666.81;4930455;29;20029;-96
2023/04/10 08:46:10;;;;;;;13.82;8.65;;;;;;;15.80;54.15;101653.50;4929366;29;20031;-96
2023/04/10 08:48:51;;;;;;;13.63;8.73;;;;;;;15.92;52.58;101647.00;4925853;29;20067;-95
2023/04/10 08:51:19;;;;;;;12.65;8.23;;;;;;;15.94;52.73;101651.28;4927309;29;20023;-95
2023/04/10 08:53:49;;;;;;;12.68;8.70;;;;;;;15.92;51.42;101642.63;4925546;29;20042;-94
2023/04/10 08:56:16;;;;;;;13.77;8.63;;;;;;;15.86;51.97;101642.84;4925162;29;20611;-95
2023/04/10 08:58:42;;;;;;;14.73;8.93;;;;;;;15.79;53.71;101670.94;4933316;28;20074;-95
2023/04/10 09:01:08;;;;;;;13.68;8.82;;;;;;;15.45;53.06;101646.72;4941645;28;20040;-94
2023/04/10 09:03:34;;;;;;;11.75;7.90;;;;;;;15.50;52.06;101670.09;4935283;29;20019;-95
2023/04/10 09:06:03;;;;;;;13.55;8.50;;;;;;;15.34;55.85;101644.47;4937587;29;20086;-94
2023/04/10 09:08:28;;;;;;;14.38;8.60;;;;;;;15.37;53.73;101638.28;4929023;29;20031;-96
2023/04/10 09:10:54;;;;;;;12.60;8.48;;;;;;;15.42;53.68;101632.00;4931445;29;20023;-96
2023/04/10 09:13:39;;;;;;;12.73;8.40;;;;;;;15.72;55.38;101653.75;4930727;29;20034;-94
2023/04/10 09:16:06;;;;;;;12.88;8.43;;;;;;;15.69;53.67;101637.31;4936635;28;20107;-93
2023/04/10 09:18:50;;;;;;;12.73;8.57;;;;;;;15.82;54.59;101643.00;4929163;29;20027;-94
2023/04/10 09:21:20;;;;;;;11.45;8.27;;;;;;;15.65;53.97;101617.38;4937157;28;20086;-93
2023/04/10 09:23:47;;;;;;;13.73;8.35;;;;;;;15.65;54.00;101612.16;4926485;29;20115;-94
2023/04/10 09:26:22;;;;;;;13.05;8.80;;;;;;;15.79;56.68;101631.72;4923846;29;20033;-93
2023/04/10 09:29:02;;;;;;;14.18;8.68;;;;;;;15.55;54.70;101616.84;4925490;29;20044;-95
2023/04/10 09:31:37;;;;;;;13.50;8.48;;;;;;;15.46;55.88;101606.66;4936156;29;20119;-96
2023/04/10 09:34:07;;;;;;;14.05;8.68;;;;;;;15.54;54.74;101625.59;4991487;23;20059;-76
2023/04/10 09:41:33;;;;;;;14.93;8.38;;;;;;;15.29;56.54;101616.75;4950643;28;20044;-71
2023/04/10 09:44:10;;;;;;;16.50;9.00;;;;;;;15.31;57.09;101601.88;4989049;23;20199;-93
2023/04/10 09:46:40;;;;;;;13.75;9.07;;;;;;;15.27;55.75;101588.09;4942676;29;20031;-92
2023/04/10 09:51:36;;;;;;;12.67;8.50;;;;;;;15.31;57.02;101574.00;4929166;23;1167297;-95
2023/04/10 09:54:03;;;;;;;12.85;8.77;;;;;;;15.40;56.71;101567.66;4943665;28;20031;-93
2023/04/10 09:56:37;;;;;;;11.80;8.15;;;;;;;15.53;57.16;101560.28;4954538;28;20085;-95
2023/04/10 09:59:05;;;;;;;12.48;8.40;;;;;;;15.48;56.69;101563.03;4954150;28;20098;-94
2023/04/10 10:01:33;;;;;;;12.27;8.25;;;;;;;15.45;55.90;101549.19;4946191;28;20035;-94
2023/04/10 10:04:03;;;;;;;14.85;8.88;;;;;;;15.56;57.76;101562.81;4951954;28;20045;-95
2023/04/10 10:06:33;;;;;;;13.60;8.70;;;;;;;15.58;56.22;101543.56;4949570;28;20082;-95
2023/04/10 10:09:03;;;;;;;12.13;8.38;;;;;;;15.69;56.67;101548.44;4943186;28;20439;-94
2023/04/10 10:11:33;;;;;;;12.65;8.65;;;;;;;15.72;56.25;101551.78;4944166;28;20035;-95
2023/04/10 10:14:02;;;;;;;15.00;8.57;;;;;;;15.76;56.39;101540.31;4936866;28;20038;-95
2023/04/10 10:16:30;;;;;;;12.70;8.27;;;;;;;16.02;57.40;101557.75;4954818;28;20022;-95
2023/04/10 10:19:25;;;;;;;12.93;8.50;;;;;;;15.96;55.47;101528.34;4940465;28;20035;-94
2023/04/10 10:21:54;;;;;;;16.25;8.45;;;;;;;16.08;55.55;101535.75;4941703;28;21430;-94
2023/04/10 10:24:22;;;;;;;13.02;8.30;;;;;;;16.11;56.53;101531.25;4935925;28;20039;-94
2023/04/10 10:26:50;;;;;;;12.00;8.30;;;;;;;16.28;56.13;101533.28;4949353;28;20050;-95
2023/04/10 10:29:18;;;;;;;13.25;8.40;;;;;;;16.27;55.96;101510.63;4937467;28;20130;-94
2023/04/10 10:31:46;;;;;;;11.98;8.13;;;;;;;16.44;55.80;101505.66;4941586;28;20022;-95
2023/04/10 10:34:15;;;;;;;12.13;8.07;;;;;;;16.65;54.94;101496.13;4947947;28;20023;-95
2023/04/10 10:36:41;;;;;;;12.10;8.35;;;;;;;16.98;54.24;101499.22;4951898;28;20042;-93
2023/04/10 10:39:28;;;;;;;11.93;8.05;;;;;;;17.24;55.68;101513.91;4955534;28;20082;-95
2023/04/10 10:42:17;;;;;;;10.93;7.15;;;;;;;17.45;56.81;101484.19;4953219;28;20591;-94
2023/04/10 10:44:49;;;;;;;10.30;7.15;;;;;;;17.72;52.95;101490.91;4940326;28;20022;-95
2023/04/10 10:47:29;;;;;;;9.32;6.70;;;;;;;17.93;53.58;101488.28;4941771;28;20507;-94
2023/04/10 10:49:57;;;;;;;8.93;6.57;;;;;;;17.98;50.62;101483.66;4944240;28;20404;-94
2023/04/10 10:52:45;;;;;;;9.80;6.55;;;;;;;18.01;52.14;101494.91;4953539;28;20040;-94
2023/04/10 10:55:37;;;;;;;11.50;6.10;;;;;;;17.79;53.17;101457.41;4939686;28;20480;-93
2023/04/10 10:58:05;;;;;;;8.45;5.53;;;;;;;17.76;52.05;101465.38;4938146;28;20035;-94
2023/04/10 11:00:49;;;;;;;8.00;6.03;;;;;;;17.86;52.61;101477.19;4955356;28;20023;-94
2023/04/10 11:03:14;;;;;;;7.97;6.03;;;;;;;17.92;50.17;101469.06;4952769;28;20042;-91
2023/04/10 11:05:53;;;;;;;7.35;5.65;;;;;;;18.00;51.10;101456.47;4943940;28;20046;-94
2023/04/10 11:08:41;;;;;;;7.63;5.40;;;;;;;18.15;51.97;101454.94;4954666;28;20023;-92
2023/04/10 11:11:14;;;;;;;7.15;5.22;;;;;;;18.25;50.63;101461.44;4941595;28;20713;-94
2023/04/10 11:13:52;;;;;;;7.90;5.40;;;;;;;18.40;52.08;101449.38;4955530;28;20059;-93
2023/04/10 11:16:40;;;;;;;6.78;5.32;;;;;;;18.40;50.00;101442.38;4941911;28;20082;-93
2023/04/10 11:19:07;;;;;;;7.13;5.50;;;;;;;18.56;49.87;101441.69;4942952;28;20475;-95
2023/04/10 11:21:34;;;;;;;7.60;5.57;;;;;;;18.71;50.40;101430.44;4942637;28;20022;-93
2023/04/10 11:23:59;;;;;;;7.20;5.63;;;;;;;18.89;49.04;101440.94;4953349;28;20085;-93
2023/04/10 11:26:34;;;;;;;6.93;5.28;;;;;;;18.99;49.40;101432.56;4944481;28;20030;-94
2023/04/10 11:29:04;;;;;;;8.50;5.55;;;;;;;18.90;48.62;101407.63;4941477;28;20043;-93
2023/04/10 11:31:31;;;;;;;8.35;5.93;;;;;;;19.05;48.53;101403.34;4943565;28;20023;-93
2023/04/10 11:33:57;;;;;;;7.70;5.50;;;;;;;19.38;48.65;101412.16;4953983;28;20095;-95
2023/04/10 11:36:23;;;;;;;7.15;5.40;;;;;;;19.33;47.27;101380.88;4954545;28;20055;-95
2023/04/10 11:38:58;;;;;;;9.60;5.50;;;;;;;19.34;48.02;101389.59;4953946;28;20436;-92
2023/04/10 11:41:33;;;;;;;7.97;5.50;;;;;;;19.08;48.01;101369.06;4943068;28;20400;-93
2023/04/10 11:44:06;;;;;;;6.68;5.18;;;;;;;18.93;47.88;101386.44;4954825;28;20381;-93
2023/04/10 11:46:35;;;;;;;9.20;5.35;;;;;;;18.85;47.29;101385.97;4952551;28;20038;-93
2023/04/10 11:49:03;;;;;;;7.30;5.30;;;;;;;18.80;46.81;101373.06;4951554;28;20050;-94
2023/04/10 11:51:32;;;;;;;6.63;5.25;;;;;;;18.67;48.25;101379.84;4954684;28;20990;-94